Time;durP1;ratioP1;P1;durP2;ratioP2;P2;SDS_P1;SDS_P2;PMS_P1;PMS_P2;Temp;Humidity;BMP_temperature;BMP_pressure;BME280_temperature;BME280_humidity;BME280_pressure;Samples;Min_cycle;Max_cycle;Signal;HPM_P1;HPM_P2
2021/05/11 00:01:44;;;;;;;23.95;10.03;;;;;;;4.88;85.42;100082.58;1758584;81;21123;-68
2021/05/11 00:04:14;;;;;;;21.55;10.30;;;;;;;4.84;85.42;100078.74;1758459;81;21406;-68
2021/05/11 00:06:42;;;;;;;21.05;9.98;;;;;;;4.76;85.71;100070.27;1758586;81;21052;-68
2021/05/11 00:09:11;;;;;;;22.32;10.45;;;;;;;4.76;85.71;100070.27;1758413;81;20895;-68
2021/05/11 00:11:38;;;;;;;21.10;10.13;;;;;;;4.73;85.86;100075.70;1758544;81;20937;-68
2021/05/11 00:14:06;;;;;;;22.62;10.30;;;;;;;4.69;86.25;100076.48;1758502;81;20986;-68
2021/05/11 00:16:34;;;;;;;24.00;10.32;;;;;;;4.65;86.19;100080.27;1758589;81;21369;-68
2021/05/11 00:19:06;;;;;;;19.27;10.30;;;;;;;4.61;86.22;100075.11;1758166;81;21167;-68
2021/05/11 00:21:33;;;;;;;21.80;9.93;;;;;;;4.48;86.13;100079.12;1758152;81;21574;-67
2021/05/11 00:24:00;;;;;;;21.42;9.45;;;;;;;4.48;86.13;100079.12;1758033;81;20942;-67
2021/05/11 00:26:28;;;;;;;21.23;9.18;;;;;;;4.42;86.51;100069.29;1757942;81;20925;-66
2021/05/11 00:28:55;;;;;;;25.23;10.63;;;;;;;4.42;86.51;100069.29;1757960;81;21215;-66
2021/05/11 00:31:24;;;;;;;18.98;10.80;;;;;;;4.39;86.43;100071.17;1757956;81;21550;-65
2021/05/11 00:33:54;;;;;;;21.95;10.63;;;;;;;4.35;86.32;100069.24;1757501;81;21036;-66
2021/05/11 00:36:23;;;;;;;19.98;10.45;;;;;;;4.30;86.33;100068.13;1758045;81;21064;-66
2021/05/11 00:38:51;;;;;;;25.72;12.68;;;;;;;4.26;86.40;100063.48;1757898;81;21167;-66
2021/05/11 00:41:18;;;;;;;25.32;10.90;;;;;;;4.25;86.55;100068.09;1757979;81;21211;-66
2021/05/11 00:43:46;;;;;;;30.00;11.97;;;;;;;4.24;86.61;100067.81;1774244;80;20943;-66
2021/05/11 00:46:15;;;;;;;24.80;11.18;;;;;;;4.24;86.50;100062.91;1774177;80;20990;-66
2021/05/11 00:48:44;;;;;;;28.45;11.50;;;;;;;4.22;86.68;100057.74;1774189;80;21021;-67
2021/05/11 00:51:12;;;;;;;24.23;10.13;;;;;;;4.22;86.92;100060.46;1774423;80;21048;-66
2021/05/11 00:53:42;;;;;;;26.55;10.98;;;;;;;4.20;87.12;100054.47;1773978;80;22111;-67
2021/05/11 00:56:11;;;;;;;20.77;10.95;;;;;;;4.20;87.09;100050.39;1774389;80;21848;-66
2021/05/11 00:58:39;;;;;;;22.13;11.03;;;;;;;4.16;87.22;100052.53;1774302;80;21033;-67
2021/05/11 01:01:06;;;;;;;25.43;11.73;;;;;;;4.12;87.24;100044.09;1773856;80;21024;-67
2021/05/11 01:03:34;;;;;;;29.18;11.20;;;;;;;4.12;87.24;100044.09;1774389;80;21001;-66
2021/05/11 01:06:02;;;;;;;23.70;10.78;;;;;;;4.10;87.41;100049.50;1774407;80;21207;-66
2021/05/11 01:08:29;;;;;;;25.97;11.43;;;;;;;4.07;87.25;100046.77;1775295;79;21589;-66
2021/05/11 01:10:57;;;;;;;23.67;11.40;;;;;;;4.07;87.25;100046.77;1777451;80;20921;-66
2021/05/11 01:13:25;;;;;;;23.57;11.57;;;;;;;4.07;87.44;100048.66;1777595;80;21088;-66
2021/05/11 01:15:53;;;;;;;25.88;11.43;;;;;;;4.04;87.42;100045.14;1777412;80;21008;-66
2021/05/11 01:18:29;;;;;;;27.22;11.35;;;;;;;4.05;87.54;100048.11;1777696;80;21126;-66
2021/05/11 01:21:01;;;;;;;25.57;10.43;;;;;;;4.04;87.79;100047.31;1777427;80;21001;-66
2021/05/11 01:23:47;;;;;;;34.75;11.88;;;;;;;3.98;88.15;100038.84;1777841;79;21014;-66
2021/05/11 01:26:05;;;;;;;20.35;11.22;;;;;;;3.96;88.22;100047.26;1774335;80;21735;-66
2021/05/11 01:45:02;;;;;;;30.70;11.70;;;;;;;3.84;88.79;100046.61;1810340;78;20984;-67
2021/05/11 01:52:30;;;;;;;23.57;11.68;;;;;;;3.73;89.16;100043.53;1808204;78;21304;-66
2021/05/11 02:25:07;;;;;;;26.87;14.15;;;;;;;3.68;93.03;100039.41;1860531;77;20975;-67
2021/05/11 02:27:36;;;;;;;30.48;15.25;;;;;;;3.69;93.85;100032.91;1860677;77;20927;-67
2021/05/11 02:30:08;;;;;;;31.93;16.67;;;;;;;3.80;95.59;100043.31;1860521;77;20944;-67
2021/05/11 02:32:38;;;;;;;27.62;14.47;;;;;;;3.86;96.09;100052.61;1860594;77;21358;-68
2021/05/11 02:35:08;;;;;;;30.60;15.03;;;;;;;3.86;96.09;100052.61;1827613;77;21113;-68
2021/05/11 02:37:35;;;;;;;27.27;13.60;;;;;;;3.84;95.39;100047.97;1860647;77;20912;-67
2021/05/11 02:40:07;;;;;;;32.60;14.18;;;;;;;3.76;94.64;100047.63;1860337;77;21003;-67
2021/05/11 02:42:35;;;;;;;27.73;13.30;;;;;;;3.76;94.64;100047.63;1834917;77;21590;-67
2021/05/11 02:45:06;;;;;;;26.10;11.75;;;;;;;3.71;95.63;100052.47;1826776;78;21293;-67
2021/05/11 02:47:46;;;;;;;28.15;11.70;;;;;;;3.71;95.63;100052.47;1827097;78;20985;-67
2021/05/11 02:50:07;;;;;;;19.95;11.63;;;;;;;3.79;96.14;100050.64;1824441;78;21124;-67
2021/05/11 02:52:34;;;;;;;29.90;11.65;;;;;;;3.78;95.87;100048.19;1826719;78;21021;-67
2021/05/11 02:55:04;;;;;;;23.07;11.75;;;;;;;3.75;95.83;100041.38;1826867;78;21001;-67
2021/05/11 02:57:32;;;;;;;26.52;12.07;;;;;;;3.77;95.79;100044.66;1826733;78;21361;-67
2021/05/11 02:59:59;;;;;;;26.17;11.00;;;;;;;3.78;95.87;100048.19;1826353;78;20934;-67
2021/05/11 03:02:28;;;;;;;29.65;11.48;;;;;;;3.82;95.97;100054.20;1826834;78;20925;-67
2021/05/11 03:04:56;;;;;;;22.82;11.38;;;;;;;3.88;96.00;100055.06;1826461;78;20934;-67
2021/05/11 03:07:24;;;;;;;22.20;10.80;;;;;;;3.93;96.06;100050.49;1826656;78;21575;-68
2021/05/11 03:09:52;;;;;;;23.77;11.48;;;;;;;4.01;96.24;100053.81;1826687;77;21202;-67
2021/05/11 03:12:21;;;;;;;24.65;11.22;;;;;;;4.10;96.38;100046.78;1826161;78;21577;-67
2021/05/11 03:14:49;;;;;;;23.07;11.18;;;;;;;4.16;96.32;100047.92;1826079;78;20900;-68
2021/05/11 03:17:16;;;;;;;23.25;11.48;;;;;;;4.23;96.37;100044.44;1826084;78;21149;-67
2021/05/11 03:19:45;;;;;;;18.52;9.63;;;;;;;4.33;96.91;100039.61;1826186;78;21754;-67
2021/05/11 03:22:12;;;;;;;20.12;11.08;;;;;;;4.47;97.65;100039.42;1794559;78;21010;-67
2021/05/11 03:24:44;;;;;;;27.02;11.93;;;;;;;4.60;98.02;100043.02;1826176;78;21042;-69
2021/05/11 03:27:11;;;;;;;28.10;12.65;;;;;;;4.72;98.17;100040.06;1825883;78;21730;-67
2021/05/11 03:29:39;;;;;;;23.60;10.30;;;;;;;4.83;98.06;100041.74;1825520;78;20924;-67
2021/05/11 03:32:08;;;;;;;23.20;11.05;;;;;;;4.90;98.01;100036.87;1824408;78;20951;-68
2021/05/11 03:34:37;;;;;;;20.00;10.38;;;;;;;4.98;97.84;100039.63;1824329;78;21195;-68
2021/05/11 03:37:05;;;;;;;22.85;11.53;;;;;;;5.06;97.85;100029.59;1824270;78;21051;-67
2021/05/11 03:44:42;;;;;;;22.13;11.10;;;;;;;5.51;97.90;100036.20;1815983;79;20871;-68
2021/05/11 03:47:15;;;;;;;22.22;10.95;;;;;;;5.64;97.56;100041.12;1816286;79;22742;-67
2021/05/11 03:49:49;;;;;;;22.10;9.68;;;;;;;5.85;97.29;100037.83;1888209;76;22461;-68
2021/05/11 03:52:25;;;;;;;21.57;10.53;;;;;;;6.03;96.95;100033.77;1909568;74;22358;-66
2021/05/11 03:55:08;;;;;;;15.75;9.38;;;;;;;6.23;95.18;100033.75;1888086;75;22533;-70
2021/05/11 03:57:43;;;;;;;21.87;9.20;;;;;;;6.41;94.10;100030.41;1889677;76;22234;-65
2021/05/11 04:00:20;;;;;;;20.70;10.38;;;;;;;6.57;93.21;100032.01;1888815;76;22431;-69
2021/05/11 04:03:05;;;;;;;16.62;9.60;;;;;;;6.69;92.25;100028.16;1775400;80;21488;-68
2021/05/11 04:05:41;;;;;;;14.60;8.80;;;;;;;6.90;91.43;100031.08;1888818;76;22111;-67
2021/05/11 04:11:10;;;;;;;18.25;7.65;;;;;;;7.25;88.41;100024.05;1888755;76;22286;-68
2021/05/11 04:18:47;;;;;;;13.58;5.97;;;;;;;7.89;81.58;100010.73;1873796;75;22572;-68
2021/05/11 04:21:33;;;;;;;10.32;4.67;;;;;;;8.06;79.53;100016.33;1841719;78;21122;-67
2021/05/11 04:24:09;;;;;;;9.88;4.60;;;;;;;8.33;75.43;100011.14;1910028;74;22595;-70
2021/05/11 04:26:44;;;;;;;7.87;3.67;;;;;;;8.54;74.00;100015.84;1890224;76;22700;-68
2021/05/11 04:29:20;;;;;;;7.62;3.92;;;;;;;8.74;72.67;100017.50;1889808;76;22611;-68
2021/05/11 04:31:55;;;;;;;6.15;3.15;;;;;;;8.91;71.63;100022.77;1872028;76;22401;-67
2021/05/11 04:34:31;;;;;;;11.12;3.45;;;;;;;9.10;68.10;100017.88;1873355;75;22643;-70
2021/05/11 04:37:16;;;;;;;6.20;3.35;;;;;;;9.22;68.12;100023.19;1840310;78;21553;-72
2021/05/11 04:39:53;;;;;;;8.60;3.55;;;;;;;9.45;67.07;100016.53;1889812;76;22719;-74
2021/05/11 04:42:29;;;;;;;8.80;4.05;;;;;;;9.60;66.49;100016.31;1849454;76;27858;-77
2021/05/11 04:45:24;;;;;;;6.60;3.37;;;;;;;9.74;65.09;100017.19;1826785;78;21050;-76
2021/05/11 04:47:58;;;;;;;9.88;3.87;;;;;;;10.02;64.00;100015.88;1873553;75;22694;-74
2021/05/11 04:50:34;;;;;;;6.15;3.20;;;;;;;10.16;63.26;100014.80;1888554;76;22806;-79
2021/05/11 04:53:09;;;;;;;6.60;3.10;;;;;;;10.31;61.16;100017.05;1873639;76;22689;-78
2021/05/11 04:55:50;;;;;;;6.15;3.30;;;;;;;10.41;60.29;100017.65;1911207;74;22635;-74
2021/05/11 04:58:26;;;;;;;12.88;3.70;;;;;;;10.51;58.57;100022.13;1888781;76;22674;-79
2021/05/11 05:01:02;;;;;;;8.05;3.72;;;;;;;10.60;59.05;100025.80;1910183;74;22694;-80
2021/05/11 05:03:40;;;;;;;15.03;4.50;;;;;;;10.71;59.07;100026.42;1829501;76;27793;-77
2021/05/11 05:06:26;;;;;;;11.55;4.12;;;;;;;10.79;59.18;100025.70;1813377;77;20929;-79
2021/05/11 05:09:07;;;;;;;5.25;3.20;;;;;;;10.98;58.22;100022.27;1857868;76;22725;-77
2021/05/11 05:11:43;;;;;;;8.73;4.15;;;;;;;11.08;58.45;100023.42;1909924;74;23232;-67
2021/05/11 05:14:18;;;;;;;11.40;4.25;;;;;;;11.19;57.69;100025.40;1888725;76;22036;-79
2021/05/11 05:16:53;;;;;;;11.08;4.40;;;;;;;11.32;57.86;100030.61;1881470;74;21867;-71
2021/05/11 05:19:29;;;;;;;9.35;4.50;;;;;;;11.42;56.42;100022.95;1907101;74;22176;-68
2021/05/11 05:22:07;;;;;;;7.60;3.90;;;;;;;11.53;56.86;100024.91;1880977;76;21906;-78
2021/05/11 05:24:44;;;;;;;10.00;4.72;;;;;;;11.64;56.29;100023.52;1873422;76;22605;-74
2021/05/11 05:27:36;;;;;;;12.45;4.85;;;;;;;11.75;55.83;100019.41;1873207;76;22626;-74
2021/05/11 05:30:04;;;;;;;8.83;5.03;;;;;;;11.87;55.42;100011.44;1888323;76;22700;-74
2021/05/11 05:32:40;;;;;;;10.53;5.45;;;;;;;11.99;54.26;100013.63;1873470;75;22654;-74
2021/05/11 05:35:15;;;;;;;8.30;4.10;;;;;;;12.10;54.42;100006.73;1873553;76;22630;-83
2021/05/11 05:37:50;;;;;;;10.80;5.78;;;;;;;12.24;54.56;100008.82;1888633;76;22653;-74
2021/05/11 05:40:26;;;;;;;13.22;4.97;;;;;;;12.38;53.47;100012.86;1873790;75;22713;-74
2021/05/11 05:43:02;;;;;;;11.68;5.25;;;;;;;12.49;53.30;100012.02;1877476;74;22279;-75
2021/05/11 05:45:38;;;;;;;12.70;5.47;;;;;;;12.63;53.15;100004.47;1888812;76;22423;-75
2021/05/11 05:48:14;;;;;;;10.18;4.65;;;;;;;12.76;52.44;100006.84;1872580;76;28383;-75
2021/05/11 05:50:56;;;;;;;9.18;4.78;;;;;;;12.91;51.38;100002.27;1883517;75;22336;-72
2021/05/11 05:53:36;;;;;;;8.23;3.67;;;;;;;13.05;52.67;100002.96;1873764;75;22708;-73
2021/05/11 05:56:13;;;;;;;6.62;3.80;;;;;;;13.14;49.40;99998.28;1888745;76;21909;-71
2021/05/11 05:58:48;;;;;;;10.90;3.50;;;;;;;13.23;50.71;99990.05;1872697;76;27924;-74
2021/05/11 06:01:28;;;;;;;7.20;3.62;;;;;;;13.40;50.54;99990.61;1890226;75;22689;-80
2021/05/11 06:04:12;;;;;;;6.65;2.83;;;;;;;13.55;50.52;99991.51;1861091;77;20908;-77
2021/05/11 06:06:49;;;;;;;6.45;2.77;;;;;;;13.74;47.89;99992.56;1871121;76;27829;-78
2021/05/11 06:09:24;;;;;;;5.73;3.07;;;;;;;13.89;47.67;99989.27;1857856;76;27669;-79
2021/05/11 06:12:07;;;;;;;6.95;2.83;;;;;;;14.05;46.60;99990.38;1873753;76;22678;-80
2021/05/11 06:15:02;;;;;;;9.35;3.27;;;;;;;14.17;46.38;99985.56;1873662;76;22658;-81
2021/05/11 06:17:40;;;;;;;5.35;2.95;;;;;;;14.27;46.74;99986.59;1873051;76;22715;-81
2021/05/11 06:20:15;;;;;;;6.33;2.65;;;;;;;14.41;47.32;99983.63;1888050;76;22768;-80
2021/05/11 06:22:57;;;;;;;6.00;3.17;;;;;;;14.56;46.83;99977.56;1881075;76;22678;-80
2021/05/11 06:25:32;;;;;;;4.55;2.40;;;;;;;14.68;45.73;99983.77;1890238;76;22780;-73
2021/05/11 06:28:18;;;;;;;4.33;2.55;;;;;;;14.73;44.04;99980.25;1851240;76;21568;-69
2021/05/11 06:30:53;;;;;;;6.20;2.40;;;;;;;14.89;43.75;99974.96;1890204;76;22476;-68
2021/05/11 06:33:29;;;;;;;5.80;1.90;;;;;;;14.97;40.97;99968.58;1890232;76;22644;-69
2021/05/11 06:36:16;;;;;;;6.40;2.65;;;;;;;15.00;41.56;99972.63;1861001;77;20923;-71
2021/05/11 06:38:52;;;;;;;6.08;2.33;;;;;;;15.16;40.21;99964.76;1873790;76;22630;-70
2021/05/11 06:41:27;;;;;;;5.20;2.50;;;;;;;15.24;40.00;99960.31;1878966;76;22497;-72
2021/05/11 06:44:14;;;;;;;10.70;3.05;;;;;;;15.36;40.86;99958.19;1893213;74;22650;-72
2021/05/11 06:49:47;;;;;;;6.08;1.80;;;;;;;15.56;40.34;99956.56;1841025;78;21010;-70
2021/05/11 06:55:15;;;;;;;3.02;2.10;;;;;;;15.96;36.89;99951.31;1888246;76;22740;-69
2021/05/11 06:57:49;;;;;;;4.20;1.77;;;;;;;16.06;37.54;99954.45;1888349;76;22723;-70
2021/05/11 07:00:25;;;;;;;2.90;1.85;;;;;;;16.19;37.12;99953.88;1872109;76;22660;-69
2021/05/11 07:03:12;;;;;;;5.72;1.90;;;;;;;16.26;36.15;99949.97;1790850;80;20917;-68
2021/05/11 07:05:50;;;;;;;4.22;2.05;;;;;;;16.44;35.34;99953.34;1873779;76;22680;-70
2021/05/11 07:08:38;;;;;;;2.90;1.60;;;;;;;16.58;36.17;99959.36;1890191;76;22708;-71
2021/05/11 07:13:56;;;;;;;6.22;2.17;;;;;;;16.90;35.11;99974.84;1887554;76;22734;-72
2021/05/11 07:16:32;;;;;;;8.48;1.98;;;;;;;16.96;34.86;99965.95;1870337;76;22760;-72
2021/05/11 07:19:08;;;;;;;5.00;2.47;;;;;;;17.08;35.67;99974.25;1848016;76;27760;-70
2021/05/11 07:21:43;;;;;;;4.35;2.17;;;;;;;17.28;36.02;99969.72;1873795;76;22621;-71
2021/05/11 07:24:23;;;;;;;6.17;1.70;;;;;;;17.44;35.14;99965.60;1874562;75;22246;-67
2021/05/11 07:27:18;;;;;;;6.12;2.35;;;;;;;17.53;35.21;99967.66;1888810;76;22530;-71
2021/05/11 07:29:53;;;;;;;3.40;2.27;;;;;;;17.61;34.53;99970.87;1888780;76;22658;-70
2021/05/11 07:32:37;;;;;;;3.20;2.00;;;;;;;17.70;35.00;99962.42;1775415;80;20973;-73
2021/05/11 07:35:14;;;;;;;5.58;2.12;;;;;;;17.90;34.98;99958.64;1873760;76;22711;-71
2021/05/11 07:37:49;;;;;;;7.75;2.20;;;;;;;17.98;34.88;99949.89;1887289;76;20871;-72
2021/05/11 07:40:35;;;;;;;3.55;2.00;;;;;;;17.98;31.25;99947.92;1849980;77;20971;-72
2021/05/11 07:43:12;;;;;;;2.92;1.72;;;;;;;18.07;32.90;99943.59;1889631;76;22696;-69
2021/05/11 08:16:57;;;;;;;51.90;9.25;;;;;;;21.09;28.56;99904.59;1909756;74;22683;-69
2021/05/11 08:19:57;;;;;;;41.28;9.10;;;;;;;21.36;26.63;99892.82;1890179;76;22609;-69
2021/05/11 08:28:30;;;;;;;3.30;2.20;;;;;;;21.79;25.82;99878.52;1888815;76;22325;-69
2021/05/11 08:31:05;;;;;;;5.33;2.20;;;;;;;21.67;27.56;99885.98;1873788;75;23165;-69
2021/05/11 08:33:41;;;;;;;4.70;2.12;;;;;;;21.75;28.17;99880.68;1888785;76;22365;-71
2021/05/11 08:36:16;;;;;;;7.40;2.08;;;;;;;21.97;27.66;99877.48;1873743;75;22670;-68
2021/05/11 08:39:03;;;;;;;7.83;2.20;;;;;;;22.11;26.93;99865.67;1841712;77;20972;-68
2021/05/11 08:41:44;;;;;;;13.90;3.47;;;;;;;22.36;26.46;99869.48;1885892;76;22675;-68
2021/05/11 08:44:20;;;;;;;8.00;3.52;;;;;;;22.47;25.47;99859.78;1890193;76;22700;-68
2021/05/11 08:46:55;;;;;;;7.20;2.70;;;;;;;22.68;26.57;99867.50;1873795;75;22652;-68
2021/05/11 08:49:32;;;;;;;8.45;1.77;;;;;;;22.94;26.19;99863.11;1873776;76;22704;-67
2021/05/11 08:52:18;;;;;;;5.47;2.90;;;;;;;23.17;25.87;99853.00;1829714;76;27842;-69
2021/05/11 09:06:46;;;;;;;6.58;2.25;;;;;;;23.84;23.88;99842.61;1870646;75;22609;-70
2021/05/11 09:15:49;;;;;;;4.30;1.70;;;;;;;24.29;24.60;99846.66;1810564;79;21573;-70
2021/05/11 09:27:22;;;;;;;15.18;4.20;;;;;;;24.97;23.20;99829.72;1861169;77;21494;-69
2021/05/11 09:30:17;;;;;;;31.23;9.70;;;;;;;25.10;23.76;99823.06;1829741;76;27778;-70
2021/05/11 09:32:56;;;;;;;9.70;2.35;;;;;;;25.25;24.20;99820.39;1873822;75;23218;-70
2021/05/11 10:27:15;;;;;;;4.75;1.30;;;;;;;25.78;22.15;99775.11;1868188;75;23229;-72
2021/05/11 10:40:54;;;;;;;1.75;1.10;;;;;;;26.58;22.11;99752.86;1827365;78;21045;-70
2021/05/11 10:46:49;;;;;;;4.78;1.70;;;;;;;27.09;22.51;99744.03;1910063;74;22382;-69
2021/05/11 10:49:37;;;;;;;2.47;1.20;;;;;;;27.09;23.07;99748.27;1890243;76;23228;-70
2021/05/11 10:52:42;;;;;;;3.30;1.10;;;;;;;27.12;21.62;99754.46;1888813;76;22370;-70
2021/05/11 10:55:20;;;;;;;3.80;1.47;;;;;;;27.19;21.69;99752.92;1890249;76;22659;-70
2021/05/11 10:58:06;;;;;;;3.87;1.20;;;;;;;27.13;21.80;99747.60;1861050;77;21062;-70
2021/05/11 11:00:44;;;;;;;6.60;1.75;;;;;;;27.05;22.22;99747.51;1890232;76;22671;-71
2021/05/11 11:03:27;;;;;;;2.75;1.42;;;;;;;27.09;21.71;99744.03;1888763;76;22326;-70
2021/05/11 11:06:04;;;;;;;1.62;1.10;;;;;;;27.05;22.83;99748.30;1888796;76;22473;-70
2021/05/11 11:08:42;;;;;;;1.30;1.05;;;;;;;27.02;23.10;99746.33;1890222;76;22648;-69
2021/05/11 11:11:20;;;;;;;3.92;1.20;;;;;;;27.19;22.69;99734.61;1910115;74;22444;-69
2021/05/11 11:13:56;;;;;;;1.40;1.30;;;;;;;27.28;21.28;99742.73;1888829;76;22723;-70
2021/05/11 11:16:42;;;;;;;8.48;1.12;;;;;;;27.31;22.78;99742.49;1775413;80;21544;-70
2021/05/11 11:19:18;;;;;;;4.33;1.20;;;;;;;27.53;22.41;99740.96;1873813;75;22620;-70
2021/05/11 11:24:42;;;;;;;9.75;1.50;;;;;;;27.50;21.61;99735.38;1861080;77;20916;-70
2021/05/11 11:27:29;;;;;;;4.58;1.60;;;;;;;27.57;23.22;99729.63;1873784;75;22715;-70
2021/05/11 11:30:10;;;;;;;1.98;1.20;;;;;;;27.65;24.04;99724.70;1873778;76;22642;-69
2021/05/11 11:33:03;;;;;;;3.67;1.47;;;;;;;27.72;22.59;99726.00;1841754;78;20913;-72
2021/05/11 11:35:45;;;;;;;1.92;1.20;;;;;;;27.94;22.72;99704.03;1888767;76;22415;-72
2021/05/11 11:38:26;;;;;;;2.27;1.20;;;;;;;27.89;21.92;99701.70;1885244;75;22283;-72
2021/05/11 11:41:13;;;;;;;4.50;1.37;;;;;;;27.86;22.94;99700.36;1806354;78;21020;-72
2021/05/11 11:43:51;;;;;;;2.37;0.90;;;;;;;27.95;21.81;99689.31;1888811;76;21495;-72
2021/05/11 11:46:28;;;;;;;3.20;1.20;;;;;;;27.93;22.15;99686.92;1873795;76;22660;-72
2021/05/11 11:51:41;;;;;;;3.80;1.40;;;;;;;28.14;22.21;99692.00;1888779;76;22394;-70
2021/05/11 11:54:23;;;;;;;3.62;1.30;;;;;;;28.25;21.24;99676.49;1872700;75;27783;-70
2021/05/11 11:59:36;;;;;;;6.33;1.65;;;;;;;28.28;22.68;99680.48;1890146;76;22620;-72
2021/05/11 12:02:11;;;;;;;4.03;1.70;;;;;;;28.22;22.99;99672.33;1874107;76;27709;-71
2021/05/11 12:04:47;;;;;;;4.90;1.60;;;;;;;28.25;22.10;99663.80;1888760;76;22438;-70
2021/05/11 12:07:24;;;;;;;4.67;1.20;;;;;;;28.35;22.18;99666.20;1873787;75;22660;-70
2021/05/11 12:10:11;;;;;;;5.92;1.12;;;;;;;28.43;22.58;99662.00;1837562;78;20918;-71
2021/05/11 12:12:46;;;;;;;2.67;1.20;;;;;;;28.52;21.32;99660.02;1871224;75;27734;-70
2021/05/11 12:15:22;;;;;;;4.17;1.37;;;;;;;28.61;21.45;99655.99;1890232;76;22604;-70
2021/05/11 12:21:00;;;;;;;3.08;1.40;;;;;;;28.99;21.18;99650.73;1873747;76;22370;-69
2021/05/11 12:23:35;;;;;;;5.17;1.50;;;;;;;29.10;21.31;99643.42;1910274;74;22390;-70
2021/05/11 12:26:11;;;;;;;2.27;1.17;;;;;;;29.07;22.09;99636.61;1873809;75;23237;-69
2021/05/11 12:29:15;;;;;;;4.85;1.30;;;;;;;29.04;22.06;99643.14;1840377;78;20923;-70
2021/05/11 12:31:51;;;;;;;7.75;1.60;;;;;;;28.96;21.82;99638.89;1868554;75;22605;-71
2021/05/11 12:34:26;;;;;;;2.42;1.22;;;;;;;29.00;22.58;99650.11;1871013;76;22799;-70
2021/05/11 12:37:02;;;;;;;3.15;1.10;;;;;;;29.04;21.06;99642.34;1866623;75;22657;-70
2021/05/11 12:42:16;;;;;;;2.25;1.05;;;;;;;29.30;22.96;99649.81;1852659;76;22701;-70
2021/05/11 12:45:14;;;;;;;7.17;1.35;;;;;;;29.28;22.20;99638.15;1797134;79;20994;-70
2021/05/11 12:47:50;;;;;;;7.83;1.12;;;;;;;29.35;21.66;99632.32;1860253;76;22358;-70
2021/05/11 12:50:35;;;;;;;6.85;2.20;;;;;;;29.54;22.49;99630.03;1865055;76;22741;-71
2021/05/11 12:56:12;;;;;;;7.30;2.10;;;;;;;29.58;22.09;99623.66;1882585;76;22650;-70
2021/05/11 13:19:58;;;;;;;1.80;1.00;;;;;;;30.40;21.72;99614.36;1873750;76;22620;-72
2021/05/11 13:22:42;;;;;;;9.98;1.52;;;;;;;30.45;21.99;99613.81;1890223;75;22616;-70
2021/05/11 13:25:35;;;;;;;3.47;1.50;;;;;;;30.47;21.48;99614.78;1890244;75;22636;-74
2021/05/11 13:28:31;;;;;;;3.60;1.17;;;;;;;30.39;21.64;99611.36;1829734;76;28302;-71
2021/05/11 13:36:41;;;;;;;2.80;1.60;;;;;;;30.57;21.59;99600.13;1888805;75;22875;-72
2021/05/11 13:39:16;;;;;;;6.75;1.60;;;;;;;30.49;21.48;99596.72;1888805;75;22617;-71
2021/05/11 13:42:02;;;;;;;6.83;1.32;;;;;;;30.48;21.50;99597.34;1777024;80;21050;-72
2021/05/11 13:44:37;;;;;;;4.55;1.25;;;;;;;30.71;21.46;99594.83;1888223;75;23311;-72
2021/05/11 13:47:13;;;;;;;5.85;1.32;;;;;;;30.91;20.38;99588.16;1871888;75;22641;-72
2021/05/11 13:49:51;;;;;;;5.72;1.42;;;;;;;30.98;19.69;99578.80;1871979;75;22711;-72
2021/05/11 13:52:26;;;;;;;3.92;1.12;;;;;;;31.00;19.67;99586.86;1889437;75;22757;-71
2021/05/11 13:55:20;;;;;;;4.37;1.12;;;;;;;30.70;20.20;99577.66;1843385;76;21003;-70
2021/05/11 14:03:57;;;;;;;3.67;1.50;;;;;;;30.85;20.99;99570.30;1816470;76;27837;-71
2021/05/11 14:06:32;;;;;;;5.60;1.30;;;;;;;31.00;20.80;99566.39;1829254;76;27690;-72
2021/05/11 14:09:07;;;;;;;9.25;1.42;;;;;;;31.22;19.68;99565.69;1873502;75;23241;-71
2021/05/11 14:11:43;;;;;;;5.85;1.30;;;;;;;31.24;19.69;99555.48;1888270;76;22171;-72
2021/05/11 14:14:18;;;;;;;2.98;1.52;;;;;;;31.18;19.83;99560.17;1873481;76;22593;-72
2021/05/11 14:17:05;;;;;;;4.72;1.70;;;;;;;31.20;20.75;99555.60;1841284;77;21455;-72
2021/05/11 14:19:40;;;;;;;3.40;1.30;;;;;;;31.29;21.24;99554.11;1889892;75;22699;-72
2021/05/11 14:22:15;;;;;;;3.25;1.32;;;;;;;31.19;19.34;99558.92;1873474;76;22830;-72
2021/05/11 14:24:57;;;;;;;3.35;1.20;;;;;;;31.00;19.52;99549.38;1868910;75;22737;-72
2021/05/11 14:27:34;;;;;;;7.97;1.82;;;;;;;31.03;20.25;99534.92;1867952;75;22770;-72
2021/05/11 14:30:22;;;;;;;6.17;1.80;;;;;;;31.05;20.34;99538.09;1857863;77;21033;-71
2021/05/11 14:33:03;;;;;;;17.75;3.00;;;;;;;30.93;20.46;99538.90;1872140;75;22641;-72
2021/05/11 14:35:39;;;;;;;5.83;1.57;;;;;;;30.69;20.07;99533.57;1843992;76;27743;-73
2021/05/11 14:38:24;;;;;;;6.60;2.87;;;;;;;30.51;19.59;99532.70;1821718;78;21523;-73
2021/05/11 14:41:03;;;;;;;9.10;1.75;;;;;;;30.43;20.43;99531.95;1872904;76;22811;-74
2021/05/11 14:43:45;;;;;;;6.65;1.25;;;;;;;30.34;21.40;99530.41;1872858;76;22655;-72
2021/05/11 14:46:20;;;;;;;5.42;1.40;;;;;;;30.34;20.42;99529.00;1869657;76;22186;-74
2021/05/11 14:48:56;;;;;;;16.25;2.10;;;;;;;30.35;20.58;99524.30;1863857;76;23233;-73
2021/05/11 14:51:41;;;;;;;3.98;1.35;;;;;;;30.40;20.23;99522.95;1832874;78;20935;-70
2021/05/11 14:54:17;;;;;;;6.70;1.80;;;;;;;30.39;20.77;99527.02;1865012;76;22354;-76
2021/05/11 14:56:52;;;;;;;3.02;1.27;;;;;;;30.37;21.31;99523.84;1869286;76;23133;-72
2021/05/11 14:59:28;;;;;;;10.10;1.72;;;;;;;30.43;21.45;99527.09;1873458;76;22652;-72
2021/05/11 15:02:04;;;;;;;7.30;1.90;;;;;;;30.39;21.18;99527.02;1864958;76;22718;-72
2021/05/11 15:04:40;;;;;;;13.78;2.62;;;;;;;30.16;20.97;99522.45;1855861;76;27820;-73
2021/05/11 15:07:15;;;;;;;4.83;2.05;;;;;;;30.17;21.21;99527.66;1889805;76;22761;-72
2021/05/11 15:09:51;;;;;;;5.03;1.57;;;;;;;30.07;21.24;99528.77;1776881;79;22799;-73
2021/05/11 15:12:38;;;;;;;5.80;2.25;;;;;;;29.92;21.25;99528.20;1749134;82;21022;-75
2021/05/11 15:15:17;;;;;;;6.45;1.70;;;;;;;29.86;22.33;99532.20;1873123;76;22621;-73
2021/05/11 15:20:36;;;;;;;7.28;1.65;;;;;;;28.87;22.16;99522.88;1865461;75;22636;-74
2021/05/11 15:23:21;;;;;;;2.45;1.52;;;;;;;28.45;23.22;99529.66;1831185;77;20966;-72
2021/05/11 15:25:57;;;;;;;7.58;1.80;;;;;;;28.38;23.26;99525.59;1870731;75;22660;-73
2021/05/11 15:28:32;;;;;;;4.60;1.85;;;;;;;28.34;23.28;99523.45;1863048;75;22743;-72
2021/05/11 15:31:18;;;;;;;3.58;1.75;;;;;;;28.30;23.46;99524.80;1831518;77;20979;-73
2021/05/11 15:33:56;;;;;;;6.53;1.60;;;;;;;28.34;23.57;99524.07;1873532;76;22668;-73
2021/05/11 15:36:30;;;;;;;4.65;1.55;;;;;;;28.37;22.78;99517.55;1873533;76;22616;-72
2021/05/11 15:39:13;;;;;;;5.75;1.42;;;;;;;28.38;22.84;99519.14;1886972;75;22765;-72
2021/05/11 15:41:49;;;;;;;5.97;1.37;;;;;;;28.29;23.22;99521.80;1877771;75;22044;-73
2021/05/11 15:44:26;;;;;;;9.93;1.90;;;;;;;28.14;23.32;99519.86;1857203;76;27729;-74
2021/05/11 15:47:11;;;;;;;8.93;1.77;;;;;;;27.89;23.89;99518.95;1758943;81;21152;-72
2021/05/11 15:49:52;;;;;;;2.95;1.62;;;;;;;27.55;24.24;99518.59;1872785;76;22723;-73
2021/05/11 15:52:28;;;;;;;9.35;1.95;;;;;;;27.33;24.50;99515.18;1872955;76;22734;-73
2021/05/11 15:55:04;;;;;;;4.03;1.55;;;;;;;27.32;24.49;99502.31;1865054;75;22737;-74
2021/05/11 15:57:39;;;;;;;5.60;1.50;;;;;;;27.33;24.26;99503.91;1808133;76;28077;-75
2021/05/11 16:00:17;;;;;;;8.68;1.80;;;;;;;27.32;24.36;99507.34;1872644;75;22290;-73
2021/05/11 16:03:04;;;;;;;6.67;1.80;;;;;;;27.21;24.32;99506.73;1815875;79;20963;-74
2021/05/11 16:05:40;;;;;;;9.30;2.20;;;;;;;27.19;24.45;99498.70;1855657;76;27766;-75
2021/05/11 16:08:22;;;;;;;5.40;2.17;;;;;;;27.24;24.41;99500.23;1858538;76;22754;-74
2021/05/11 16:11:01;;;;;;;4.53;1.70;;;;;;;27.20;24.56;99499.50;1873351;76;28503;-72
2021/05/11 16:13:47;;;;;;;6.60;2.08;;;;;;;27.17;24.39;99501.77;1859537;77;20993;-75
2021/05/11 16:16:23;;;;;;;8.05;2.30;;;;;;;27.06;24.54;99499.16;1892956;74;27666;-74
2021/05/11 16:18:59;;;;;;;8.63;2.00;;;;;;;27.02;25.02;99496.22;1887883;76;23285;-74
2021/05/11 16:21:35;;;;;;;6.92;1.72;;;;;;;26.99;25.03;99497.08;1857119;75;27768;-75
2021/05/11 16:24:11;;;;;;;6.70;1.52;;;;;;;26.94;25.36;99499.73;1889448;75;22820;-74
2021/05/11 16:26:56;;;;;;;5.90;1.47;;;;;;;26.81;25.38;99505.17;1859967;77;20983;-73